createdAt,value
2022-08-03T00:02:08.152Z,14.72
2022-08-03T00:04:54.848Z,14.70
2022-08-03T00:07:41.111Z,14.63
2022-08-03T00:10:26.988Z,14.53
2022-08-03T00:13:13.181Z,14.50
2022-08-03T00:15:58.476Z,14.41
2022-08-03T00:18:43.791Z,14.35
2022-08-03T00:21:29.356Z,14.33
2022-08-03T00:24:14.879Z,14.34
2022-08-03T00:27:00.046Z,14.32
2022-08-03T00:30:00.002Z,14.17
2022-08-03T00:32:45.755Z,14.11
2022-08-03T00:35:50.067Z,14.08
2022-08-03T00:38:36.549Z,14.08
2022-08-03T00:41:22.137Z,14.09
2022-08-03T00:44:07.337Z,14.06
2022-08-03T00:46:52.691Z,13.94
2022-08-03T00:49:39.656Z,13.85
2022-08-03T00:52:26.084Z,13.82
2022-08-03T00:55:12.632Z,13.81
2022-08-03T00:57:59.414Z,13.83
2022-08-03T01:00:44.776Z,13.76
2022-08-03T01:03:30.035Z,13.69
2022-08-03T01:06:22.634Z,13.58
2022-08-03T01:09:26.927Z,13.58
2022-08-03T01:12:46.371Z,13.60
2022-08-03T01:15:39.160Z,13.61
2022-08-03T01:18:38.921Z,13.66
2022-08-03T01:21:32.935Z,13.62
2022-08-03T01:24:37.995Z,13.61
2022-08-03T01:27:31.066Z,13.63
2022-08-03T01:30:16.678Z,13.56
2022-08-03T01:33:10.106Z,13.50
2022-08-03T01:36:08.026Z,13.47
2022-08-03T01:39:02.159Z,13.48
2022-08-03T01:42:00.949Z,13.33
2022-08-03T01:44:48.808Z,13.24
2022-08-03T01:47:34.637Z,13.20
2022-08-03T01:50:22.926Z,13.16
2022-08-03T01:53:09.320Z,13.11
2022-08-03T01:55:55.755Z,13.06
2022-08-03T01:58:41.626Z,13.05
2022-08-03T02:01:27.592Z,13.00
2022-08-03T02:04:35.421Z,13.03
2022-08-03T02:07:20.877Z,13.13
2022-08-03T02:10:06.995Z,13.15
2022-08-03T02:12:53.662Z,13.23
2022-08-03T02:15:39.227Z,13.24
2022-08-03T02:18:25.946Z,13.34
2022-08-03T02:21:12.044Z,13.31
2022-08-03T02:24:17.447Z,13.26
2022-08-03T02:27:05.531Z,13.22
2022-08-03T02:30:01.425Z,13.16
2022-08-03T02:32:52.158Z,13.10
2022-08-03T02:35:38.172Z,13.08
2022-08-03T02:38:27.423Z,13.01
2022-08-03T02:41:15.560Z,12.99
2022-08-03T02:44:06.527Z,12.96
2022-08-03T02:46:56.057Z,12.99
2022-08-03T02:49:51.362Z,13.01
2022-08-03T02:52:37.427Z,12.99
2022-08-03T02:55:23.861Z,13.00
2022-08-03T02:58:10.429Z,12.97
2022-08-03T03:00:56.282Z,12.90
2022-08-03T03:03:44.841Z,12.84
2022-08-03T03:06:31.668Z,12.82
2022-08-03T03:09:17.647Z,12.77
2022-08-03T03:12:04.381Z,12.75
2022-08-03T03:14:49.544Z,12.75
2022-08-03T03:17:35.214Z,12.71
2022-08-03T03:20:29.419Z,12.72
2022-08-03T03:23:16.081Z,12.70
2022-08-03T03:26:02.234Z,12.63
2022-08-03T03:28:47.861Z,12.62
2022-08-03T03:31:32.940Z,12.60
2022-08-03T03:34:18.833Z,12.61
2022-08-03T03:37:05.242Z,12.63
2022-08-03T03:39:50.984Z,12.57
2022-08-03T03:42:36.318Z,12.60
2022-08-03T03:45:21.941Z,12.52
2022-08-03T03:48:07.675Z,12.54
2022-08-03T03:50:53.296Z,12.54
2022-08-03T03:53:38.770Z,12.61
2022-08-03T03:56:24.572Z,12.62
2022-08-03T03:59:10.130Z,12.55
2022-08-03T04:01:58.935Z,12.51
2022-08-03T04:05:03.311Z,12.51
2022-08-03T04:08:25.976Z,12.39
2022-08-03T04:11:15.372Z,12.38
2022-08-03T04:14:06.990Z,12.35
2022-08-03T04:16:55.956Z,12.29
2022-08-03T04:19:44.353Z,12.30
2022-08-03T04:22:32.567Z,12.40
2022-08-03T04:25:19.495Z,12.33
2022-08-03T04:28:08.018Z,12.29
2022-08-03T04:31:10.396Z,12.39
2022-08-03T04:33:55.648Z,12.47
2022-08-03T04:36:50.401Z,12.54
2022-08-03T04:39:36.199Z,12.62
2022-08-03T04:42:22.615Z,12.64
2022-08-03T04:45:13.365Z,12.62
2022-08-03T04:47:59.311Z,12.69
2022-08-03T04:50:48.225Z,12.79
2022-08-03T04:53:34.340Z,12.84
2022-08-03T04:56:19.578Z,12.91
2022-08-03T04:59:04.762Z,12.88
2022-08-03T05:01:50.480Z,12.82
2022-08-03T05:04:38.647Z,12.85
2022-08-03T05:07:25.089Z,12.84
2022-08-03T05:10:16.186Z,12.80
2022-08-03T05:13:01.869Z,12.82
2022-08-03T05:15:47.417Z,12.85
2022-08-03T05:18:32.631Z,12.92
2022-08-03T05:21:17.894Z,13.00
2022-08-03T05:24:03.520Z,13.03
2022-08-03T05:26:48.759Z,13.10
2022-08-03T05:29:33.897Z,13.15
2022-08-03T05:32:19.672Z,13.20
2022-08-03T05:35:55.881Z,13.31
2022-08-03T05:38:10.544Z,13.43
2022-08-03T05:41:22.765Z,13.54
2022-08-03T05:44:02.819Z,13.63
2022-08-03T05:46:48.080Z,13.74
2022-08-03T05:49:33.675Z,13.89
2022-08-03T05:52:18.658Z,14.11
2022-08-03T05:55:05.360Z,14.28
2022-08-03T05:57:50.576Z,14.47
2022-08-03T06:00:35.745Z,14.68
2022-08-03T06:03:21.965Z,14.86
2022-08-03T06:06:09.133Z,15.06
2022-08-03T06:08:54.395Z,15.32
2022-08-03T06:11:40.395Z,15.54
2022-08-03T06:14:25.724Z,15.72
2022-08-03T06:17:11.390Z,15.96
2022-08-03T06:19:58.210Z,16.19
2022-08-03T06:22:50.891Z,16.41
2022-08-03T06:25:36.765Z,16.65
2022-08-03T06:28:52.263Z,16.90
2022-08-03T06:31:33.158Z,17.12
2022-08-03T06:34:33.976Z,17.30
2022-08-03T06:37:20.676Z,17.51
2022-08-03T06:40:06.168Z,17.72
2022-08-03T06:42:51.446Z,17.99
2022-08-03T06:45:36.629Z,18.21
2022-08-03T06:48:21.830Z,18.45
2022-08-03T06:51:07.226Z,18.74
2022-08-03T06:53:52.563Z,19.03
2022-08-03T06:56:38.253Z,19.33
2022-08-03T07:00:10.592Z,19.52
2022-08-03T07:02:30.325Z,19.76
2022-08-03T07:05:16.599Z,19.89
2022-08-03T07:08:03.199Z,20.03
2022-08-03T07:10:48.739Z,20.23
2022-08-03T07:13:34.050Z,20.39
2022-08-03T07:16:19.264Z,20.61
2022-08-03T07:19:04.936Z,20.85
2022-08-03T07:21:50.066Z,20.93
2022-08-03T07:24:38.624Z,21.15
2022-08-03T07:27:27.024Z,21.30
2022-08-03T07:30:14.423Z,21.38
2022-08-03T07:33:26.040Z,21.46
2022-08-03T07:36:11.325Z,21.58
2022-08-03T07:38:58.130Z,21.77
2022-08-03T07:41:43.488Z,21.98
2022-08-03T07:44:28.731Z,22.12
2022-08-03T07:47:22.344Z,22.24
2022-08-03T07:50:08.936Z,22.39
2022-08-03T07:52:56.072Z,22.47
2022-08-03T07:55:41.445Z,22.54
2022-08-03T07:58:27.661Z,22.77
2022-08-03T08:01:15.036Z,23.01
2022-08-03T08:04:06.360Z,23.09
2022-08-03T08:06:52.129Z,23.13
2022-08-03T08:09:37.401Z,23.18
2022-08-03T08:13:25.435Z,23.39
2022-08-03T08:16:10.931Z,23.53
2022-08-03T08:18:56.107Z,23.66
2022-08-03T08:21:53.927Z,23.80
2022-08-03T08:24:49.101Z,23.89
2022-08-03T08:28:29.647Z,24.11
2022-08-03T08:30:49.088Z,24.20
2022-08-03T08:34:03.157Z,24.37
2022-08-03T08:36:41.660Z,24.59
2022-08-03T08:39:26.728Z,24.64
2022-08-03T08:42:12.197Z,24.86
2022-08-03T08:44:57.407Z,25.02
2022-08-03T08:47:50.928Z,25.04
2022-08-03T08:50:37.885Z,25.09
2022-08-03T08:53:27.620Z,25.22
2022-08-03T08:56:17.207Z,25.33
2022-08-03T08:59:03.554Z,25.53
2022-08-03T09:01:50.421Z,25.61
2022-08-03T09:04:39.020Z,25.71
2022-08-03T09:07:24.379Z,25.80
2022-08-03T09:10:13.290Z,25.86
2022-08-03T09:12:58.888Z,25.92
2022-08-03T09:16:00.743Z,25.92
2022-08-03T09:18:39.968Z,26.06
2022-08-03T09:21:30.144Z,26.24
2022-08-03T09:24:04.406Z,28.14
2022-08-03T09:26:32.530Z,29.79
2022-08-03T09:29:14.030Z,31.63
2022-08-03T09:31:46.468Z,33.18
2022-08-03T09:34:16.489Z,34.69
2022-08-03T09:36:50.531Z,34.91
2022-08-03T09:39:19.096Z,34.63
2022-08-03T09:42:06.773Z,36.08
2022-08-03T09:44:36.026Z,34.97
2022-08-03T09:47:04.021Z,33.15
2022-08-03T09:49:31.977Z,32.27
2022-08-03T09:52:32.566Z,31.68
2022-08-03T09:54:53.188Z,31.21
2022-08-03T09:57:22.055Z,30.56
2022-08-03T09:59:48.963Z,30.61
2022-08-03T10:02:26.183Z,30.66
2022-08-03T10:04:54.284Z,30.76
2022-08-03T10:07:22.428Z,30.79
2022-08-03T10:09:58.122Z,30.68
2022-08-03T10:12:45.237Z,30.31
2022-08-03T10:16:24.017Z,30.12
2022-08-03T10:17:59.407Z,30.50
2022-08-03T10:20:27.461Z,30.27
2022-08-03T10:22:54.431Z,30.59
2022-08-03T10:25:21.169Z,30.27
2022-08-03T10:28:04.282Z,29.99
2022-08-03T10:30:33.364Z,30.15
2022-08-03T10:33:05.845Z,30.35
2022-08-03T10:35:55.045Z,30.36
2022-08-03T10:38:26.918Z,30.64
2022-08-03T10:40:58.931Z,30.87
2022-08-03T10:43:28.785Z,31.07
2022-08-03T10:45:55.950Z,30.95
2022-08-03T10:48:22.839Z,31.20
2022-08-03T10:50:50.865Z,31.18
2022-08-03T10:53:34.695Z,31.21
2022-08-03T10:56:26.608Z,31.53
2022-08-03T10:59:08.812Z,31.73
2022-08-03T11:02:00.561Z,31.69
2022-08-03T11:04:30.000Z,31.75
2022-08-03T11:07:19.070Z,31.63
2022-08-03T11:09:51.722Z,31.65
2022-08-03T11:12:22.512Z,31.88
2022-08-03T11:15:03.308Z,32.18
2022-08-03T11:17:32.408Z,32.58
2022-08-03T11:19:59.076Z,32.18
2022-08-03T11:22:50.831Z,32.38
2022-08-03T11:25:54.895Z,32.40
2022-08-03T11:28:28.846Z,32.75
2022-08-03T11:30:55.617Z,32.93
2022-08-03T11:33:32.196Z,32.95
2022-08-03T11:36:01.620Z,32.81
2022-08-03T11:38:30.026Z,33.14
2022-08-03T11:40:57.511Z,33.37
2022-08-03T11:43:31.485Z,33.57
2022-08-03T11:46:08.184Z,33.37
2022-08-03T11:48:37.133Z,33.49
2022-08-03T11:51:06.094Z,33.46
2022-08-03T11:53:33.032Z,33.09
2022-08-03T11:56:12.978Z,33.69
2022-08-03T11:59:14.247Z,33.93
2022-08-03T12:01:35.699Z,33.96
2022-08-03T12:04:05.250Z,34.40
2022-08-03T12:06:52.741Z,34.48
2022-08-03T12:09:21.167Z,33.65
2022-08-03T12:11:59.734Z,33.86
2022-08-03T12:14:50.786Z,34.06
2022-08-03T12:17:15.289Z,34.22
2022-08-03T12:19:45.235Z,34.32
2022-08-03T12:22:12.083Z,34.86
2022-08-03T12:24:43.830Z,34.80
2022-08-03T12:27:10.483Z,34.34
2022-08-03T12:29:37.486Z,33.94
2022-08-03T12:32:04.424Z,33.68
2022-08-03T12:34:47.796Z,34.17
2022-08-03T12:37:19.073Z,34.49
2022-08-03T12:40:02.365Z,34.60
2022-08-03T12:42:35.587Z,34.91
2022-08-03T12:45:22.482Z,35.30
2022-08-03T12:47:58.013Z,35.15
2022-08-03T12:50:35.064Z,34.57
2022-08-03T12:53:04.578Z,34.75
2022-08-03T12:55:56.370Z,34.76
2022-08-03T12:58:34.365Z,34.14
2022-08-03T13:01:09.434Z,33.10
2022-08-03T13:04:02.666Z,32.63
2022-08-03T13:06:30.614Z,32.20
2022-08-03T13:09:07.742Z,31.95
